sensor_id;sensor_type;location;lat;lon;timestamp;pressure;altitude;pressure_sealevel;temperature;humidity
54850;BME280;47660;51.334;12.396;2023-04-21T00:01:05;100335.94;;;19.67;55.61
54850;BME280;47660;51.334;12.396;2023-04-21T00:03:33;100341.75;;;19.99;55.40
54850;BME280;47660;51.334;12.396;2023-04-21T00:06:03;100327.88;;;19.75;56.10
54850;BME280;47660;51.334;12.396;2023-04-21T00:08:31;100333.25;;;19.31;57.37
54850;BME280;47660;51.334;12.396;2023-04-21T00:10:57;100330.66;;;19.39;57.28
54850;BME280;47660;51.334;12.396;2023-04-21T00:13:24;100326.13;;;19.04;57.87
54850;BME280;47660;51.334;12.396;2023-04-21T00:15:50;100328.88;;;19.12;57.85
54850;BME280;47660;51.334;12.396;2023-04-21T00:18:15;100325.00;;;19.95;55.82
54850;BME280;47660;51.334;12.396;2023-04-21T00:20:42;100331.41;;;19.50;56.61
54850;BME280;47660;51.334;12.396;2023-04-21T00:23:10;100327.22;;;19.73;55.91
54850;BME280;47660;51.334;12.396;2023-04-21T00:25:36;100325.78;;;19.87;55.95
54850;BME280;47660;51.334;12.396;2023-04-21T00:28:01;100320.16;;;19.54;56.21
54850;BME280;47660;51.334;12.396;2023-04-21T00:30:26;100317.41;;;19.46;56.41
54850;BME280;47660;51.334;12.396;2023-04-21T00:32:54;100325.59;;;19.63;56.20
54850;BME280;47660;51.334;12.396;2023-04-21T00:35:20;100312.34;;;19.69;56.20
54850;BME280;47660;51.334;12.396;2023-04-21T00:37:45;100310.03;;;19.74;55.66
54850;BME280;47660;51.334;12.396;2023-04-21T00:40:11;100309.28;;;19.20;57.76
54850;BME280;47660;51.334;12.396;2023-04-21T00:42:37;100310.53;;;19.52;56.96
54850;BME280;47660;51.334;12.396;2023-04-21T00:45:03;100305.59;;;19.65;56.96
54850;BME280;47660;51.334;12.396;2023-04-21T00:47:29;100304.97;;;19.98;55.94
54850;BME280;47660;51.334;12.396;2023-04-21T00:49:56;100304.84;;;19.55;57.56
54850;BME280;47660;51.334;12.396;2023-04-21T00:52:22;100302.56;;;19.42;57.63
54850;BME280;47660;51.334;12.396;2023-04-21T00:54:48;100302.56;;;19.06;58.50
54850;BME280;47660;51.334;12.396;2023-04-21T00:57:14;100297.81;;;19.18;57.90
54850;BME280;47660;51.334;12.396;2023-04-21T00:59:39;100304.91;;;19.19;58.19
54850;BME280;47660;51.334;12.396;2023-04-21T01:02:05;100292.06;;;18.84;58.91
54850;BME280;47660;51.334;12.396;2023-04-21T01:04:30;100294.19;;;19.09;58.72
54850;BME280;47660;51.334;12.396;2023-04-21T01:07:03;100289.84;;;19.34;58.42
54850;BME280;47660;51.334;12.396;2023-04-21T01:09:30;100281.78;;;19.60;57.72
54850;BME280;47660;51.334;12.396;2023-04-21T01:12:03;100282.78;;;19.86;57.54
54850;BME280;47660;51.334;12.396;2023-04-21T01:14:29;100294.78;;;19.39;58.09
54850;BME280;47660;51.334;12.396;2023-04-21T01:16:56;100288.00;;;19.35;58.28
54850;BME280;47660;51.334;12.396;2023-04-21T01:19:22;100285.53;;;19.68;56.86
54850;BME280;47660;51.334;12.396;2023-04-21T01:21:47;100286.56;;;19.22;58.17
54850;BME280;47660;51.334;12.396;2023-04-21T01:24:15;100288.38;;;19.40;57.40
54850;BME280;47660;51.334;12.396;2023-04-21T01:26:41;100285.19;;;19.89;55.74
54850;BME280;47660;51.334;12.396;2023-04-21T01:29:08;100282.25;;;20.09;55.37
54850;BME280;47660;51.334;12.396;2023-04-21T01:31:34;100284.34;;;19.18;58.04
54850;BME280;47660;51.334;12.396;2023-04-21T01:34:03;100282.94;;;19.84;57.20
54850;BME280;47660;51.334;12.396;2023-04-21T01:36:29;100277.84;;;19.28;58.02
54850;BME280;47660;51.334;12.396;2023-04-21T01:38:55;100278.00;;;18.73;59.58
54850;BME280;47660;51.334;12.396;2023-04-21T01:41:20;100277.28;;;18.98;59.16
54850;BME280;47660;51.334;12.396;2023-04-21T01:43:46;100283.16;;;19.20;58.44
54850;BME280;47660;51.334;12.396;2023-04-21T01:46:14;100282.16;;;18.67;60.35
54850;BME280;47660;51.334;12.396;2023-04-21T01:48:41;100273.28;;;19.73;59.13
54850;BME280;47660;51.334;12.396;2023-04-21T01:51:07;100273.47;;;19.27;58.42
54850;BME280;47660;51.334;12.396;2023-04-21T01:53:32;100284.06;;;19.29;58.59
54850;BME280;47660;51.334;12.396;2023-04-21T01:55:58;100280.00;;;19.07;59.33
54850;BME280;47660;51.334;12.396;2023-04-21T01:58:23;100277.31;;;19.07;59.36
54850;BME280;47660;51.334;12.396;2023-04-21T02:00:51;100280.16;;;19.23;58.37
54850;BME280;47660;51.334;12.396;2023-04-21T02:03:19;100279.38;;;18.95;60.12
54850;BME280;47660;51.334;12.396;2023-04-21T02:05:45;100275.47;;;18.89;59.79
54850;BME280;47660;51.334;12.396;2023-04-21T02:08:11;100277.06;;;18.64;60.72
54850;BME280;47660;51.334;12.396;2023-04-21T02:10:37;100274.59;;;18.98;59.79
54850;BME280;47660;51.334;12.396;2023-04-21T02:13:05;100273.28;;;18.75;60.73
54850;BME280;47660;51.334;12.396;2023-04-21T02:15:30;100268.69;;;18.85;59.85
54850;BME280;47660;51.334;12.396;2023-04-21T02:17:58;100265.78;;;19.14;59.31
54850;BME280;47660;51.334;12.396;2023-04-21T02:20:23;100270.81;;;18.63;60.84
54850;BME280;47660;51.334;12.396;2023-04-21T02:22:48;100272.78;;;19.07;59.23
54850;BME280;47660;51.334;12.396;2023-04-21T02:25:14;100273.56;;;19.18;58.96
54850;BME280;47660;51.334;12.396;2023-04-21T02:27:39;100274.38;;;18.64;60.56
54850;BME280;47660;51.334;12.396;2023-04-21T02:30:05;100264.53;;;19.09;59.66
54850;BME280;47660;51.334;12.396;2023-04-21T02:32:33;100269.47;;;19.32;59.97
54850;BME280;47660;51.334;12.396;2023-04-21T02:34:59;100276.59;;;18.68;60.65
54850;BME280;47660;51.334;12.396;2023-04-21T02:37:24;100275.06;;;18.84;60.08
54850;BME280;47660;51.334;12.396;2023-04-21T02:39:50;100275.47;;;18.89;59.72
54850;BME280;47660;51.334;12.396;2023-04-21T02:42:16;100274.88;;;19.13;58.73
54850;BME280;47660;51.334;12.396;2023-04-21T02:44:41;100266.66;;;19.41;57.80
54850;BME280;47660;51.334;12.396;2023-04-21T02:47:09;100271.53;;;19.64;58.17
54850;BME280;47660;51.334;12.396;2023-04-21T02:49:39;100269.91;;;19.71;58.06
54850;BME280;47660;51.334;12.396;2023-04-21T02:52:05;100275.16;;;18.92;58.96
54850;BME280;47660;51.334;12.396;2023-04-21T02:54:30;100272.78;;;18.71;59.30
54850;BME280;47660;51.334;12.396;2023-04-21T02:56:56;100273.81;;;18.60;60.43
54850;BME280;47660;51.334;12.396;2023-04-21T02:59:21;100267.53;;;18.69;60.13
54850;BME280;47660;51.334;12.396;2023-04-21T03:01:46;100275.28;;;18.73;59.77
54850;BME280;47660;51.334;12.396;2023-04-21T03:04:13;100266.13;;;18.65;59.88
54850;BME280;47660;51.334;12.396;2023-04-21T03:06:38;100269.38;;;18.87;59.31
54850;BME280;47660;51.334;12.396;2023-04-21T03:09:04;100278.63;;;18.38;60.60
54850;BME280;47660;51.334;12.396;2023-04-21T03:11:30;100273.00;;;17.94;62.62
54850;BME280;47660;51.334;12.396;2023-04-21T03:13:55;100277.66;;;18.58;60.12
54850;BME280;47660;51.334;12.396;2023-04-21T03:16:21;100277.72;;;18.20;61.27
54850;BME280;47660;51.334;12.396;2023-04-21T03:18:47;100273.53;;;17.70;63.61
54850;BME280;47660;51.334;12.396;2023-04-21T03:21:12;100263.75;;;18.16;62.37
54850;BME280;47660;51.334;12.396;2023-04-21T03:23:38;100268.66;;;17.83;63.06
54850;BME280;47660;51.334;12.396;2023-04-21T03:26:06;100269.47;;;18.31;63.21
54850;BME280;47660;51.334;12.396;2023-04-21T03:28:32;100272.72;;;17.97;62.83
54850;BME280;47660;51.334;12.396;2023-04-21T03:30:58;100269.56;;;18.11;62.27
54850;BME280;47660;51.334;12.396;2023-04-21T03:33:23;100267.59;;;18.32;61.49
54850;BME280;47660;51.334;12.396;2023-04-21T03:35:48;100271.94;;;18.15;61.06
54850;BME280;47660;51.334;12.396;2023-04-21T03:38:14;100269.38;;;18.23;61.53
54850;BME280;47660;51.334;12.396;2023-04-21T03:40:39;100273.84;;;18.32;61.14
54850;BME280;47660;51.334;12.396;2023-04-21T03:43:07;100270.31;;;17.94;62.06
54850;BME280;47660;51.334;12.396;2023-04-21T03:45:38;100269.06;;;18.54;61.61
54850;BME280;47660;51.334;12.396;2023-04-21T03:48:04;100275.66;;;18.41;61.14
54850;BME280;47660;51.334;12.396;2023-04-21T03:50:29;100273.94;;;17.75;63.09
54850;BME280;47660;51.334;12.396;2023-04-21T03:52:55;100272.31;;;17.92;62.81
54850;BME280;47660;51.334;12.396;2023-04-21T03:55:23;100272.28;;;18.02;61.62
54850;BME280;47660;51.334;12.396;2023-04-21T03:57:48;100269.03;;;18.08;61.63
54850;BME280;47660;51.334;12.396;2023-04-21T04:00:16;100267.94;;;18.29;62.44
54850;BME280;47660;51.334;12.396;2023-04-21T04:02:41;100279.75;;;17.60;63.65
54850;BME280;47660;51.334;12.396;2023-04-21T04:05:10;100270.41;;;17.64;63.71
54850;BME280;47660;51.334;12.396;2023-04-21T04:07:35;100273.09;;;17.64;63.33
54850;BME280;47660;51.334;12.396;2023-04-21T04:10:01;100269.25;;;17.77;62.23
54850;BME280;47660;51.334;12.396;2023-04-21T04:12:29;100272.25;;;18.11;61.75
54850;BME280;47660;51.334;12.396;2023-04-21T04:14:55;100270.53;;;18.20;61.06
54850;BME280;47660;51.334;12.396;2023-04-21T04:17:20;100282.13;;;18.21;60.51
54850;BME280;47660;51.334;12.396;2023-04-21T04:19:51;100277.03;;;18.46;60.98
54850;BME280;47660;51.334;12.396;2023-04-21T04:22:16;100286.38;;;17.76;61.56
54850;BME280;47660;51.334;12.396;2023-04-21T04:24:41;100280.22;;;18.03;61.13
54850;BME280;47660;51.334;12.396;2023-04-21T04:27:09;100278.84;;;17.79;62.14
54850;BME280;47660;51.334;12.396;2023-04-21T04:29:38;100288.66;;;17.71;62.39
54850;BME280;47660;51.334;12.396;2023-04-21T04:32:07;100283.88;;;17.45;63.15
54850;BME280;47660;51.334;12.396;2023-04-21T04:34:36;100285.28;;;18.16;60.54
54850;BME280;47660;51.334;12.396;2023-04-21T04:37:02;100278.78;;;18.09;61.01
54850;BME280;47660;51.334;12.396;2023-04-21T04:39:28;100285.69;;;17.64;62.58
54850;BME280;47660;51.334;12.396;2023-04-21T04:41:53;100285.19;;;17.98;61.34
54850;BME280;47660;51.334;12.396;2023-04-21T04:44:21;100286.69;;;18.10;62.95
54850;BME280;47660;51.334;12.396;2023-04-21T04:46:47;100287.38;;;18.22;60.90
54850;BME280;47660;51.334;12.396;2023-04-21T04:49:13;100289.59;;;18.27;60.46
54850;BME280;47660;51.334;12.396;2023-04-21T04:51:39;100285.22;;;18.54;59.11
54850;BME280;47660;51.334;12.396;2023-04-21T04:54:05;100283.63;;;18.33;59.40
54850;BME280;47660;51.334;12.396;2023-04-21T04:56:30;100285.63;;;18.03;60.84
54850;BME280;47660;51.334;12.396;2023-04-21T04:58:56;100290.03;;;18.50;59.30
54850;BME280;47660;51.334;12.396;2023-04-21T05:01:21;100292.75;;;18.22;59.92
54850;BME280;47660;51.334;12.396;2023-04-21T05:03:52;100295.38;;;18.32;59.64
54850;BME280;47660;51.334;12.396;2023-04-21T05:06:17;100302.81;;;18.66;58.24
54850;BME280;47660;51.334;12.396;2023-04-21T05:08:42;100294.78;;;18.38;59.63
54850;BME280;47660;51.334;12.396;2023-04-21T05:11:08;100293.53;;;17.95;61.24
54850;BME280;47660;51.334;12.396;2023-04-21T05:13:36;100300.00;;;18.12;60.87
54850;BME280;47660;51.334;12.396;2023-04-21T05:16:01;100301.41;;;18.16;61.51
54850;BME280;47660;51.334;12.396;2023-04-21T05:18:27;100303.81;;;18.19;61.96
54850;BME280;47660;51.334;12.396;2023-04-21T05:20:53;100304.97;;;18.63;60.03
54850;BME280;47660;51.334;12.396;2023-04-21T05:23:19;100299.91;;;17.94;62.16
54850;BME280;47660;51.334;12.396;2023-04-21T05:25:45;100288.16;;;18.79;59.74
54850;BME280;47660;51.334;12.396;2023-04-21T05:28:10;100298.00;;;19.69;57.05
54850;BME280;47660;51.334;12.396;2023-04-21T05:30:36;100300.16;;;18.84;59.85
54850;BME280;47660;51.334;12.396;2023-04-21T05:33:03;100299.44;;;18.64;59.02
54850;BME280;47660;51.334;12.396;2023-04-21T05:35:32;100306.22;;;18.68;60.16
54850;BME280;47660;51.334;12.396;2023-04-21T05:37:57;100297.97;;;18.52;59.88
54850;BME280;47660;51.334;12.396;2023-04-21T05:40:23;100305.97;;;18.06;62.54
54850;BME280;47660;51.334;12.396;2023-04-21T05:42:48;100302.13;;;18.64;60.52
54850;BME280;47660;51.334;12.396;2023-04-21T05:45:14;100301.22;;;18.74;60.20
54850;BME280;47660;51.334;12.396;2023-04-21T05:47:39;100310.50;;;18.61;60.52
54850;BME280;47660;51.334;12.396;2023-04-21T05:50:06;100309.16;;;18.75;61.16
54850;BME280;47660;51.334;12.396;2023-04-21T05:52:31;100300.69;;;18.14;61.79
54850;BME280;47660;51.334;12.396;2023-04-21T05:54:57;100310.47;;;18.89;61.01
54850;BME280;47660;51.334;12.396;2023-04-21T05:57:26;100301.31;;;18.82;60.58
54850;BME280;47660;51.334;12.396;2023-04-21T05:59:54;100305.94;;;19.44;59.22
54850;BME280;47660;51.334;12.396;2023-04-21T06:02:21;100304.63;;;19.48;59.05
54850;BME280;47660;51.334;12.396;2023-04-21T06:04:46;100300.41;;;19.27;58.82
54850;BME280;47660;51.334;12.396;2023-04-21T06:07:12;100298.56;;;19.54;57.55
54850;BME280;47660;51.334;12.396;2023-04-21T06:09:40;100291.75;;;20.72;56.05
54850;BME280;47660;51.334;12.396;2023-04-21T06:12:06;100297.94;;;20.13;57.39
54850;BME280;47660;51.334;12.396;2023-04-21T06:14:31;100302.88;;;19.65;56.97
54850;BME280;47660;51.334;12.396;2023-04-21T06:16:57;100298.47;;;19.38;58.32
54850;BME280;47660;51.334;12.396;2023-04-21T06:19:23;100297.38;;;19.75;57.12
54850;BME280;47660;51.334;12.396;2023-04-21T06:21:48;100300.47;;;20.58;55.51
54850;BME280;47660;51.334;12.396;2023-04-21T06:24:14;100302.94;;;20.00;56.67
54850;BME280;47660;51.334;12.396;2023-04-21T06:26:40;100298.91;;;20.39;56.58
54850;BME280;47660;51.334;12.396;2023-04-21T06:29:07;100294.06;;;19.81;57.33
54850;BME280;47660;51.334;12.396;2023-04-21T06:31:35;100293.63;;;20.29;57.65
54850;BME280;47660;51.334;12.396;2023-04-21T06:34:01;100284.72;;;20.37;56.01
54850;BME280;47660;51.334;12.396;2023-04-21T06:36:26;100284.94;;;20.52;55.51
54850;BME280;47660;51.334;12.396;2023-04-21T06:38:52;100288.75;;;20.32;55.67
54850;BME280;47660;51.334;12.396;2023-04-21T06:41:18;100282.44;;;20.58;54.95
54850;BME280;47660;51.334;12.396;2023-04-21T06:43:43;100283.69;;;20.97;53.98
54850;BME280;47660;51.334;12.396;2023-04-21T06:46:09;100287.69;;;20.68;53.77
54850;BME280;47660;51.334;12.396;2023-04-21T06:48:34;100290.28;;;20.86;54.44
54850;BME280;47660;51.334;12.396;2023-04-21T06:51:00;100284.84;;;20.70;54.24
54850;BME280;47660;51.334;12.396;2023-04-21T06:53:26;100285.03;;;21.59;52.45
54850;BME280;47660;51.334;12.396;2023-04-21T06:55:52;100280.19;;;21.13;52.92
54850;BME280;47660;51.334;12.396;2023-04-21T06:58:17;100281.19;;;20.96;53.27
54850;BME280;47660;51.334;12.396;2023-04-21T07:00:43;100276.59;;;21.79;51.88
54850;BME280;47660;51.334;12.396;2023-04-21T07:03:11;100274.88;;;21.61;51.29
54850;BME280;47660;51.334;12.396;2023-04-21T07:05:36;100271.03;;;21.56;50.94
54850;BME280;47660;51.334;12.396;2023-04-21T07:08:02;100268.63;;;21.77;51.14
54850;BME280;47660;51.334;12.396;2023-04-21T07:10:28;100271.34;;;21.77;51.64
54850;BME280;47660;51.334;12.396;2023-04-21T07:12:54;100267.31;;;22.61;49.72
54850;BME280;47660;51.334;12.396;2023-04-21T07:15:22;100272.91;;;21.39;50.81
54850;BME280;47660;51.334;12.396;2023-04-21T07:17:47;100269.13;;;22.29;49.52
54850;BME280;47660;51.334;12.396;2023-04-21T07:20:13;100265.09;;;22.57;49.12
54850;BME280;47660;51.334;12.396;2023-04-21T07:22:38;100261.88;;;22.21;48.99
54850;BME280;47660;51.334;12.396;2023-04-21T07:25:04;100267.94;;;22.32;48.92
54850;BME280;47660;51.334;12.396;2023-04-21T07:27:33;100261.97;;;23.38;47.61
54850;BME280;47660;51.334;12.396;2023-04-21T07:30:05;100261.94;;;22.99;48.12
54850;BME280;47660;51.334;12.396;2023-04-21T07:32:31;100266.44;;;21.56;50.02
54850;BME280;47660;51.334;12.396;2023-04-21T07:34:57;100260.72;;;23.25;47.47
54850;BME280;47660;51.334;12.396;2023-04-21T07:37:23;100259.00;;;22.86;47.93
54850;BME280;47660;51.334;12.396;2023-04-21T07:39:48;100258.75;;;22.96;48.01
54850;BME280;47660;51.334;12.396;2023-04-21T07:42:14;100248.69;;;22.18;48.42
54850;BME280;47660;51.334;12.396;2023-04-21T07:44:40;100254.84;;;22.75;46.75
54850;BME280;47660;51.334;12.396;2023-04-21T07:47:05;100247.91;;;23.72;44.50
54850;BME280;47660;51.334;12.396;2023-04-21T07:49:31;100261.09;;;22.44;46.78
54850;BME280;47660;51.334;12.396;2023-04-21T07:51:57;100254.59;;;22.62;47.74
54850;BME280;47660;51.334;12.396;2023-04-21T07:54:22;100246.22;;;22.95;45.66
54850;BME280;47660;51.334;12.396;2023-04-21T07:56:47;100254.28;;;22.57;46.46
54850;BME280;47660;51.334;12.396;2023-04-21T07:59:13;100256.00;;;23.42;45.31
54850;BME280;47660;51.334;12.396;2023-04-21T08:01:39;100247.31;;;23.92;44.60
54850;BME280;47660;51.334;12.396;2023-04-21T08:04:04;100238.72;;;23.73;43.97
54850;BME280;47660;51.334;12.396;2023-04-21T08:06:35;100232.50;;;25.55;42.43
54850;BME280;47660;51.334;12.396;2023-04-21T08:09:00;100241.78;;;23.17;44.24
54850;BME280;47660;51.334;12.396;2023-04-21T08:11:26;100230.38;;;25.44;41.34
54850;BME280;47660;51.334;12.396;2023-04-21T08:13:53;100235.19;;;24.03;42.92
54850;BME280;47660;51.334;12.396;2023-04-21T08:16:18;100230.53;;;24.33;43.07
54850;BME280;47660;51.334;12.396;2023-04-21T08:18:45;100243.00;;;23.14;43.97
54850;BME280;47660;51.334;12.396;2023-04-21T08:21:13;100234.63;;;24.44;42.37
54850;BME280;47660;51.334;12.396;2023-04-21T08:23:39;100233.50;;;25.76;40.27
54850;BME280;47660;51.334;12.396;2023-04-21T08:26:05;100236.19;;;24.17;42.64
54850;BME280;47660;51.334;12.396;2023-04-21T08:28:30;100230.47;;;24.85;41.18
54850;BME280;47660;51.334;12.396;2023-04-21T08:30:55;100235.00;;;24.05;41.84
54850;BME280;47660;51.334;12.396;2023-04-21T08:33:21;100229.50;;;24.35;42.65
54850;BME280;47660;51.334;12.396;2023-04-21T08:35:49;100221.31;;;24.50;40.48
54850;BME280;47660;51.334;12.396;2023-04-21T08:38:14;100225.56;;;24.59;40.93
54850;BME280;47660;51.334;12.396;2023-04-21T08:40:40;100222.66;;;24.97;40.85
54850;BME280;47660;51.334;12.396;2023-04-21T08:43:06;100216.88;;;24.63;39.92
54850;BME280;47660;51.334;12.396;2023-04-21T08:45:33;100218.66;;;25.85;38.27
54850;BME280;47660;51.334;12.396;2023-04-21T08:48:02;100228.38;;;24.66;39.58
54850;BME280;47660;51.334;12.396;2023-04-21T08:50:32;100231.81;;;24.16;40.32
54850;BME280;47660;51.334;12.396;2023-04-21T08:52:58;100222.53;;;26.11;38.19
54850;BME280;47660;51.334;12.396;2023-04-21T08:55:31;100214.84;;;25.79;37.87
54850;BME280;47660;51.334;12.396;2023-04-21T08:57:57;100219.06;;;25.75;38.04
54850;BME280;47660;51.334;12.396;2023-04-21T09:00:23;100209.31;;;24.81;37.18
54850;BME280;47660;51.334;12.396;2023-04-21T09:02:57;100210.94;;;25.89;36.92
54850;BME280;47660;51.334;12.396;2023-04-21T09:05:25;100208.91;;;26.66;35.47
54850;BME280;47660;51.334;12.396;2023-04-21T09:07:54;100214.94;;;25.29;36.95
54850;BME280;47660;51.334;12.396;2023-04-21T09:10:31;100212.16;;;24.36;37.93
54850;BME280;47660;51.334;12.396;2023-04-21T09:12:59;100218.66;;;24.56;38.05
54850;BME280;47660;51.334;12.396;2023-04-21T09:15:40;100205.66;;;25.80;35.99
54850;BME280;47660;51.334;12.396;2023-04-21T09:18:13;100208.91;;;26.04;36.90
54850;BME280;47660;51.334;12.396;2023-04-21T09:20:39;100202.97;;;26.43;35.97
54850;BME280;47660;51.334;12.396;2023-04-21T09:23:06;100206.06;;;26.19;36.58
54850;BME280;47660;51.334;12.396;2023-04-21T09:25:32;100205.34;;;25.62;36.91
54850;BME280;47660;51.334;12.396;2023-04-21T09:28:00;100209.06;;;26.38;34.98
54850;BME280;47660;51.334;12.396;2023-04-21T09:30:25;100205.50;;;25.54;36.17
54850;BME280;47660;51.334;12.396;2023-04-21T09:32:57;100203.13;;;25.72;35.64
54850;BME280;47660;51.334;12.396;2023-04-21T09:35:27;100210.56;;;25.99;34.62
54850;BME280;47660;51.334;12.396;2023-04-21T09:37:55;100203.47;;;27.40;37.46
54850;BME280;47660;51.334;12.396;2023-04-21T09:40:21;100196.38;;;26.86;36.00
54850;BME280;47660;51.334;12.396;2023-04-21T09:42:46;100193.56;;;26.45;35.26
54850;BME280;47660;51.334;12.396;2023-04-21T09:45:12;100198.00;;;26.66;35.24
54850;BME280;47660;51.334;12.396;2023-04-21T09:47:41;100189.38;;;25.87;34.63
54850;BME280;47660;51.334;12.396;2023-04-21T09:50:13;100182.72;;;27.06;33.26
54850;BME280;47660;51.334;12.396;2023-04-21T09:52:42;100184.31;;;26.33;33.00
54850;BME280;47660;51.334;12.396;2023-04-21T09:55:12;100177.69;;;27.03;32.71
54850;BME280;47660;51.334;12.396;2023-04-21T09:57:39;100177.00;;;27.54;32.15
54850;BME280;47660;51.334;12.396;2023-04-21T10:00:11;100179.97;;;26.79;31.89
54850;BME280;47660;51.334;12.396;2023-04-21T10:02:43;100182.09;;;27.10;32.54
54850;BME280;47660;51.334;12.396;2023-04-21T10:05:09;100179.91;;;25.83;34.43
54850;BME280;47660;51.334;12.396;2023-04-21T10:07:37;100173.91;;;25.94;32.73
54850;BME280;47660;51.334;12.396;2023-04-21T10:10:06;100176.63;;;27.17;31.36
54850;BME280;47660;51.334;12.396;2023-04-21T10:12:32;100177.69;;;27.03;32.19
54850;BME280;47660;51.334;12.396;2023-04-21T10:15:03;100178.31;;;27.18;31.32
54850;BME280;47660;51.334;12.396;2023-04-21T10:17:28;100179.75;;;26.60;31.42
54850;BME280;47660;51.334;12.396;2023-04-21T10:19:58;100176.78;;;26.42;32.20
54850;BME280;47660;51.334;12.396;2023-04-21T10:22:33;100171.69;;;27.73;31.38
54850;BME280;47660;51.334;12.396;2023-04-21T10:25:07;100165.56;;;27.84;29.80
54850;BME280;47660;51.334;12.396;2023-04-21T10:27:36;100164.31;;;28.33;29.07
54850;BME280;47660;51.334;12.396;2023-04-21T10:30:22;100170.13;;;27.18;29.80
54850;BME280;47660;51.334;12.396;2023-04-21T10:32:48;100164.00;;;27.36;29.79
54850;BME280;47660;51.334;12.396;2023-04-21T10:38:34;100158.13;;;28.69;30.06
54850;BME280;47660;51.334;12.396;2023-04-21T10:43:44;100162.34;;;26.61;29.93
54850;BME280;47660;51.334;12.396;2023-04-21T10:46:38;100160.84;;;27.60;29.76
54850;BME280;47660;51.334;12.396;2023-04-21T10:54:23;100141.69;;;28.44;27.63
54850;BME280;47660;51.334;12.396;2023-04-21T10:56:56;100149.41;;;28.22;28.46
54850;BME280;47660;51.334;12.396;2023-04-21T10:59:23;100139.47;;;28.91;27.81
54850;BME280;47660;51.334;12.396;2023-04-21T11:01:49;100136.50;;;27.24;29.26
54850;BME280;47660;51.334;12.396;2023-04-21T11:04:15;100143.19;;;27.55;28.10
54850;BME280;47660;51.334;12.396;2023-04-21T11:06:41;100133.41;;;27.14;29.20
54850;BME280;47660;51.334;12.396;2023-04-21T11:09:06;100133.38;;;26.74;28.83
54850;BME280;47660;51.334;12.396;2023-04-21T11:11:31;100130.19;;;27.51;28.92
54850;BME280;47660;51.334;12.396;2023-04-21T11:14:01;100134.25;;;27.87;28.88
54850;BME280;47660;51.334;12.396;2023-04-21T11:16:26;100125.69;;;27.70;28.34
54850;BME280;47660;51.334;12.396;2023-04-21T11:18:52;100134.34;;;27.67;28.17
54850;BME280;47660;51.334;12.396;2023-04-21T11:21:22;100118.44;;;27.50;27.48
54850;BME280;47660;51.334;12.396;2023-04-21T11:23:56;100133.72;;;27.65;27.49
54850;BME280;47660;51.334;12.396;2023-04-21T11:26:33;100125.84;;;27.09;28.84
54850;BME280;47660;51.334;12.396;2023-04-21T11:29:00;100122.09;;;27.04;28.71
54850;BME280;47660;51.334;12.396;2023-04-21T11:31:29;100122.06;;;27.24;28.47
54850;BME280;47660;51.334;12.396;2023-04-21T11:33:57;100111.38;;;27.09;28.96
54850;BME280;47660;51.334;12.396;2023-04-21T11:36:23;100120.16;;;27.18;28.31
54850;BME280;47660;51.334;12.396;2023-04-21T11:38:51;100115.28;;;27.40;28.75
54850;BME280;47660;51.334;12.396;2023-04-21T11:41:21;100103.50;;;28.37;27.25
54850;BME280;47660;51.334;12.396;2023-04-21T11:43:50;100106.84;;;28.00;27.62
54850;BME280;47660;51.334;12.396;2023-04-21T11:48:44;100110.06;;;27.38;28.48
54850;BME280;47660;51.334;12.396;2023-04-21T11:51:14;100102.16;;;28.21;27.31
54850;BME280;47660;51.334;12.396;2023-04-21T11:53:39;100104.47;;;26.99;27.81
54850;BME280;47660;51.334;12.396;2023-04-21T11:56:05;100109.41;;;27.43;27.90
54850;BME280;47660;51.334;12.396;2023-04-21T11:58:31;100096.59;;;27.50;27.58
54850;BME280;47660;51.334;12.396;2023-04-21T12:00:56;100106.50;;;27.24;29.02
54850;BME280;47660;51.334;12.396;2023-04-21T12:03:21;100101.16;;;28.15;27.65
54850;BME280;47660;51.334;12.396;2023-04-21T12:05:57;100088.44;;;28.53;27.10
54850;BME280;47660;51.334;12.396;2023-04-21T12:08:22;100077.56;;;28.21;26.78
54850;BME280;47660;51.334;12.396;2023-04-21T12:10:47;100076.81;;;29.09;26.53
54850;BME280;47660;51.334;12.396;2023-04-21T12:13:21;100085.16;;;28.70;27.82
54850;BME280;47660;51.334;12.396;2023-04-21T12:15:47;100086.09;;;27.93;28.15
54850;BME280;47660;51.334;12.396;2023-04-21T12:18:13;100082.81;;;27.84;27.91
54850;BME280;47660;51.334;12.396;2023-04-21T12:20:56;100069.78;;;28.94;26.38
54850;BME280;47660;51.334;12.396;2023-04-21T12:23:25;100070.34;;;27.95;27.13
54850;BME280;47660;51.334;12.396;2023-04-21T12:25:53;100066.84;;;29.14;25.45
54850;BME280;47660;51.334;12.396;2023-04-21T12:28:18;100069.84;;;28.05;27.74
54850;BME280;47660;51.334;12.396;2023-04-21T12:30:49;100072.50;;;28.75;27.58
54850;BME280;47660;51.334;12.396;2023-04-21T12:33:14;100069.34;;;27.82;28.55
54850;BME280;47660;51.334;12.396;2023-04-21T12:35:42;100063.41;;;29.19;27.49
54850;BME280;47660;51.334;12.396;2023-04-21T12:38:08;100066.91;;;28.89;27.78
54850;BME280;47660;51.334;12.396;2023-04-21T12:40:34;100059.84;;;29.56;26.83
54850;BME280;47660;51.334;12.396;2023-04-21T12:43:01;100066.16;;;30.17;25.36
54850;BME280;47660;51.334;12.396;2023-04-21T12:45:27;100062.06;;;29.47;25.80
54850;BME280;47660;51.334;12.396;2023-04-21T12:47:52;100059.31;;;28.91;26.26
54850;BME280;47660;51.334;12.396;2023-04-21T12:50:19;100060.31;;;29.83;25.77
54850;BME280;47660;51.334;12.396;2023-04-21T12:52:44;100051.38;;;30.18;25.97